AUL1667 UUDL-ULMK
Flight info
| Callsign | AUL1667 |
|---|---|
| Flight time | 1h 39m |
| Altitude | 36000 |
| Route | MAGOK2M MAGOK T617 GOBOM T747 ARMAD ARMAD4A |
| Aircraft | B738/M-SDE2E3FGHIRWXY/LB1 |
Departure
| Time | 2026-04-26 16:08 |
|---|---|
| Airport | Golden Ring Yaroslavl International Airport (UUDL) |
Arrival
| Time | 2026-04-26 17:47 |
|---|---|
| Airport | Kirovsk-Apatity Airport (ULMK) |
| Time | Latitude | Longitude | Altitude | Speed | Heading |
|---|---|---|---|---|---|
| 2026-04-26 15:41 | 57.56337 | 40.17493 | 300 ft | 0 kts | 13° |
| 2026-04-26 16:04 | 57.56340 | 40.17494 | 299 ft | 1 kts | 13° |
| 2026-04-26 16:04 | 57.56362 | 40.17497 | 299 ft | 6 kts | 9° |
| 2026-04-26 16:05 | 57.56408 | 40.17590 | 299 ft | 9 kts | 63° |
| 2026-04-26 16:05 | 57.56447 | 40.17672 | 299 ft | 0 kts | 16° |
| 2026-04-26 16:05 | 57.56454 | 40.17674 | 299 ft | 0 kts | 5° |
| 2026-04-26 16:05 | 57.56456 | 40.17673 | 299 ft | 0 kts | 346° |
| 2026-04-26 16:06 | 57.56459 | 40.17672 | 299 ft | 2 kts | 343° |
| 2026-04-26 16:06 | 57.56510 | 40.17631 | 299 ft | 8 kts | 334° |
| 2026-04-26 16:06 | 57.56535 | 40.17500 | 300 ft | 17 kts | 247° |
| 2026-04-26 16:06 | 57.56519 | 40.17437 | 300 ft | 0 kts | 243° |
| 2026-04-26 16:07 | 57.56512 | 40.17411 | 300 ft | 9 kts | 243° |
| 2026-04-26 16:07 | 57.56383 | 40.16933 | 299 ft | 77 kts | 243° |
| 2026-04-26 16:07 | 57.56038 | 40.15647 | 292 ft | 141 kts | 243° |
| 2026-04-26 16:08 | 57.55539 | 40.13772 | 577 ft | 167 kts | 243° |
| 2026-04-26 16:08 | 57.55212 | 40.12523 | 1080 ft | 164 kts | 242° |
| 2026-04-26 16:08 | 57.54496 | 40.09909 | 1714 ft | 186 kts | 240° |
| 2026-04-26 16:08 | 57.53884 | 40.07699 | 2246 ft | 195 kts | 240° |
| 2026-04-26 16:09 | 57.53262 | 40.05390 | 2693 ft | 210 kts | 240° |
| 2026-04-26 16:09 | 57.52538 | 40.02921 | 3190 ft | 221 kts | 229° |
| 2026-04-26 16:09 | 57.51302 | 40.01173 | 3582 ft | 232 kts | 197° |
| 2026-04-26 16:09 | 57.49736 | 40.00335 | 4292 ft | 236 kts | 188° |
| 2026-04-26 16:10 | 57.48138 | 40.00268 | 5108 ft | 232 kts | 164° |
| 2026-04-26 16:10 | 57.46702 | 40.01574 | 5953 ft | 231 kts | 146° |
| 2026-04-26 16:10 | 57.45495 | 40.03557 | 6706 ft | 236 kts | 130° |
| 2026-04-26 16:10 | 57.44800 | 40.06331 | 7443 ft | 245 kts | 106° |
| 2026-04-26 16:11 | 57.44704 | 40.09542 | 8165 ft | 254 kts | 89° |
| 2026-04-26 16:11 | 57.45237 | 40.12703 | 8841 ft | 268 kts | 63° |
| 2026-04-26 16:11 | 57.46545 | 40.15279 | 9507 ft | 281 kts | 40° |
| 2026-04-26 16:11 | 57.48150 | 40.17373 | 10181 ft | 286 kts | 39° |
| 2026-04-26 16:12 | 57.49792 | 40.19488 | 10849 ft | 291 kts | 39° |
| 2026-04-26 16:12 | 57.51475 | 40.21679 | 11508 ft | 296 kts | 39° |
| 2026-04-26 16:12 | 57.54906 | 40.26167 | 12836 ft | 306 kts | 38° |
| 2026-04-26 16:13 | 57.56653 | 40.28455 | 13463 ft | 313 kts | 38° |
| 2026-04-26 16:13 | 57.58530 | 40.30616 | 14107 ft | 321 kts | 26° |
| 2026-04-26 16:13 | 57.60707 | 40.31688 | 14759 ft | 326 kts | 0° |
| 2026-04-26 16:13 | 57.62931 | 40.31091 | 15320 ft | 329 kts | 338° |
| 2026-04-26 16:14 | 57.65019 | 40.29229 | 15682 ft | 338 kts | 323° |
| 2026-04-26 16:14 | 57.67027 | 40.26753 | 16072 ft | 351 kts | 320° |
| 2026-04-26 16:14 | 57.71151 | 40.21460 | 17321 ft | 363 kts | 321° |
| 2026-04-26 16:15 | 57.73249 | 40.18798 | 17976 ft | 367 kts | 321° |
| 2026-04-26 16:15 | 57.75380 | 40.16101 | 18673 ft | 370 kts | 321° |
| 2026-04-26 16:15 | 57.77532 | 40.13377 | 19364 ft | 372 kts | 320° |
| 2026-04-26 16:16 | 57.81895 | 40.07842 | 20729 ft | 377 kts | 319° |
| 2026-04-26 16:16 | 57.83860 | 40.05349 | 21296 ft | 379 kts | 319° |
| 2026-04-26 16:16 | 57.86188 | 40.02384 | 21943 ft | 381 kts | 319° |
| 2026-04-26 16:16 | 57.88377 | 39.99594 | 22541 ft | 384 kts | 318° |
| 2026-04-26 16:17 | 57.90609 | 39.96743 | 23140 ft | 385 kts | 318° |
| 2026-04-26 16:17 | 57.92813 | 39.93924 | 23752 ft | 386 kts | 317° |
| 2026-04-26 16:17 | 57.95039 | 39.91072 | 24281 ft | 389 kts | 318° |
| 2026-04-26 16:17 | 57.97311 | 39.88186 | 24809 ft | 392 kts | 317° |
| 2026-04-26 16:18 | 57.99561 | 39.85298 | 25324 ft | 395 kts | 317° |
| 2026-04-26 16:18 | 58.04455 | 39.79931 | 26197 ft | 416 kts | 330° |
| 2026-04-26 16:19 | 58.10265 | 39.77513 | 27168 ft | 434 kts | 345° |
| 2026-04-26 16:19 | 58.13308 | 39.76711 | 27544 ft | 438 kts | 345° |
| 2026-04-26 16:19 | 58.18434 | 39.75339 | 28178 ft | 445 kts | 345° |
| 2026-04-26 16:20 | 58.22522 | 39.74255 | 28775 ft | 446 kts | 345° |
| 2026-04-26 16:20 | 58.28677 | 39.72597 | 29548 ft | 451 kts | 344° |
| 2026-04-26 16:20 | 58.31783 | 39.71735 | 29857 ft | 455 kts | 344° |
| 2026-04-26 16:21 | 58.34917 | 39.70860 | 30258 ft | 455 kts | 343° |
| 2026-04-26 16:21 | 58.38034 | 39.69792 | 30599 ft | 455 kts | 340° |
| 2026-04-26 16:21 | 58.41143 | 39.68586 | 30848 ft | 458 kts | 339° |
| 2026-04-26 16:21 | 58.44235 | 39.67353 | 31108 ft | 462 kts | 339° |
| 2026-04-26 16:22 | 58.47423 | 39.66089 | 31414 ft | 464 kts | 339° |
| 2026-04-26 16:22 | 58.50584 | 39.64846 | 31592 ft | 466 kts | 340° |
| 2026-04-26 16:22 | 58.53759 | 39.63611 | 31834 ft | 465 kts | 341° |
| 2026-04-26 16:22 | 58.56920 | 39.62385 | 32059 ft | 464 kts | 341° |
| 2026-04-26 16:23 | 58.60065 | 39.61165 | 32269 ft | 463 kts | 342° |
| 2026-04-26 16:23 | 58.63221 | 39.59941 | 32444 ft | 465 kts | 342° |
| 2026-04-26 16:23 | 58.66364 | 39.58718 | 32608 ft | 465 kts | 343° |
| 2026-04-26 16:23 | 58.69515 | 39.57495 | 32805 ft | 464 kts | 343° |
| 2026-04-26 16:24 | 58.72725 | 39.56281 | 32988 ft | 465 kts | 346° |
| 2026-04-26 16:24 | 58.75912 | 39.55430 | 33219 ft | 467 kts | 350° |
| 2026-04-26 16:24 | 58.79181 | 39.54818 | 33423 ft | 468 kts | 352° |
| 2026-04-26 16:24 | 58.82414 | 39.54303 | 33688 ft | 467 kts | 353° |
| 2026-04-26 16:25 | 58.85613 | 39.53803 | 33936 ft | 467 kts | 353° |
| 2026-04-26 16:25 | 58.88846 | 39.53303 | 34322 ft | 464 kts | 353° |
| 2026-04-26 16:25 | 58.92083 | 39.52799 | 34625 ft | 463 kts | 353° |
| 2026-04-26 16:25 | 58.95257 | 39.52296 | 34902 ft | 462 kts | 353° |
| 2026-04-26 16:26 | 58.98485 | 39.51777 | 35142 ft | 462 kts | 353° |
| 2026-04-26 16:26 | 59.00611 | 39.51432 | 35342 ft | 461 kts | 353° |
| 2026-04-26 16:26 | 59.08087 | 39.50203 | 35418 ft | 463 kts | 353° |
| 2026-04-26 16:27 | 59.14601 | 39.49124 | 35405 ft | 458 kts | 353° |
| 2026-04-26 16:27 | 59.20944 | 39.48067 | 35407 ft | 458 kts | 353° |
| 2026-04-26 16:28 | 59.27305 | 39.47005 | 35404 ft | 459 kts | 353° |
| 2026-04-26 16:28 | 59.33670 | 39.45938 | 35418 ft | 458 kts | 353° |
| 2026-04-26 16:29 | 59.39939 | 39.44882 | 35414 ft | 457 kts | 353° |
| 2026-04-26 16:29 | 59.46292 | 39.43893 | 35422 ft | 459 kts | 354° |
| 2026-04-26 16:30 | 59.52658 | 39.42828 | 35423 ft | 458 kts | 353° |
| 2026-04-26 16:30 | 59.58993 | 39.41698 | 35426 ft | 458 kts | 353° |
| 2026-04-26 16:31 | 59.65352 | 39.40584 | 35445 ft | 458 kts | 353° |
| 2026-04-26 16:31 | 59.71693 | 39.39483 | 35441 ft | 457 kts | 353° |
| 2026-04-26 16:32 | 59.76940 | 39.38541 | 35444 ft | 457 kts | 352° |
| 2026-04-26 16:32 | 59.84168 | 39.35492 | 35439 ft | 453 kts | 341° |
| 2026-04-26 16:33 | 59.90262 | 39.31691 | 35431 ft | 451 kts | 339° |
| 2026-04-26 16:33 | 59.96227 | 39.27850 | 35432 ft | 452 kts | 339° |
| 2026-04-26 16:34 | 60.02178 | 39.23995 | 35436 ft | 453 kts | 339° |
| 2026-04-26 16:34 | 60.08156 | 39.20108 | 35438 ft | 453 kts | 340° |
| 2026-04-26 16:35 | 60.14199 | 39.16163 | 35437 ft | 453 kts | 340° |
| 2026-04-26 16:35 | 60.20231 | 39.12210 | 35435 ft | 453 kts | 340° |
| 2026-04-26 16:36 | 60.26157 | 39.08311 | 35434 ft | 451 kts | 340° |
| 2026-04-26 16:36 | 60.32145 | 39.04355 | 35450 ft | 453 kts | 340° |
| 2026-04-26 16:37 | 60.38101 | 39.00407 | 35449 ft | 450 kts | 340° |
| 2026-04-26 16:37 | 60.43061 | 38.97108 | 35449 ft | 451 kts | 340° |
| 2026-04-26 16:38 | 60.50001 | 38.92472 | 35448 ft | 452 kts | 340° |
| 2026-04-26 16:38 | 60.56012 | 38.88439 | 35436 ft | 455 kts | 340° |
| 2026-04-26 16:39 | 60.62084 | 38.84346 | 35442 ft | 464 kts | 340° |
| 2026-04-26 16:39 | 60.68180 | 38.80218 | 35447 ft | 464 kts | 340° |
| 2026-04-26 16:40 | 60.74297 | 38.76061 | 35456 ft | 462 kts | 340° |
| 2026-04-26 16:40 | 60.80402 | 38.71893 | 35457 ft | 463 kts | 340° |
| 2026-04-26 16:41 | 60.86500 | 38.67712 | 35461 ft | 463 kts | 340° |
| 2026-04-26 16:41 | 60.92595 | 38.63517 | 35464 ft | 463 kts | 340° |
| 2026-04-26 16:42 | 60.98692 | 38.59305 | 35464 ft | 462 kts | 340° |
| 2026-04-26 16:42 | 61.04770 | 38.55090 | 35458 ft | 462 kts | 340° |
| 2026-04-26 16:43 | 61.10831 | 38.50870 | 35453 ft | 462 kts | 340° |
| 2026-04-26 16:43 | 61.17024 | 38.46542 | 35455 ft | 462 kts | 340° |
| 2026-04-26 16:44 | 61.23112 | 38.42287 | 35456 ft | 463 kts | 341° |
| 2026-04-26 16:44 | 61.29337 | 38.38970 | 35462 ft | 464 kts | 346° |
| 2026-04-26 16:45 | 61.35619 | 38.36140 | 35463 ft | 463 kts | 347° |
| 2026-04-26 16:45 | 61.41959 | 38.33266 | 35465 ft | 464 kts | 346° |
| 2026-04-26 16:46 | 61.48251 | 38.30369 | 35465 ft | 463 kts | 346° |
| 2026-04-26 16:46 | 61.54544 | 38.27441 | 35464 ft | 459 kts | 346° |
| 2026-04-26 16:47 | 61.60718 | 38.24549 | 35466 ft | 448 kts | 346° |
| 2026-04-26 16:47 | 61.66768 | 38.21697 | 35464 ft | 449 kts | 346° |
| 2026-04-26 16:48 | 61.72923 | 38.18778 | 35462 ft | 451 kts | 346° |
| 2026-04-26 16:48 | 61.79026 | 38.15874 | 35465 ft | 450 kts | 346° |
| 2026-04-26 16:49 | 61.85103 | 38.12969 | 35467 ft | 450 kts | 346° |
| 2026-04-26 16:49 | 61.91204 | 38.10041 | 35479 ft | 450 kts | 346° |
| 2026-04-26 16:50 | 61.97248 | 38.07115 | 35488 ft | 450 kts | 346° |
| 2026-04-26 16:50 | 62.03344 | 38.04088 | 35495 ft | 449 kts | 346° |
| 2026-04-26 16:51 | 62.09434 | 38.01045 | 35494 ft | 449 kts | 346° |
| 2026-04-26 16:51 | 62.15654 | 37.97928 | 35498 ft | 450 kts | 346° |
| 2026-04-26 16:52 | 62.19704 | 37.95892 | 35497 ft | 450 kts | 346° |
| 2026-04-26 16:52 | 62.27835 | 37.91792 | 35496 ft | 449 kts | 346° |
| 2026-04-26 16:53 | 62.33886 | 37.88725 | 35492 ft | 449 kts | 346° |
| 2026-04-26 16:53 | 62.39955 | 37.85637 | 35496 ft | 449 kts | 346° |
| 2026-04-26 16:54 | 62.46014 | 37.82542 | 35501 ft | 449 kts | 346° |
| 2026-04-26 16:54 | 62.52085 | 37.79428 | 35513 ft | 449 kts | 346° |
| 2026-04-26 16:55 | 62.58163 | 37.76296 | 35509 ft | 448 kts | 346° |
| 2026-04-26 16:55 | 62.64215 | 37.73162 | 35516 ft | 447 kts | 345° |
| 2026-04-26 16:56 | 62.73141 | 37.67523 | 35528 ft | 447 kts | 342° |
| 2026-04-26 16:57 | 62.79063 | 37.63566 | 35520 ft | 447 kts | 342° |
| 2026-04-26 16:57 | 62.87982 | 37.57646 | 35525 ft | 447 kts | 342° |
| 2026-04-26 16:58 | 62.91930 | 37.55029 | 35528 ft | 447 kts | 342° |
| 2026-04-26 16:59 | 63.02815 | 37.47791 | 35524 ft | 447 kts | 343° |
| 2026-04-26 17:00 | 63.14680 | 37.39849 | 35530 ft | 446 kts | 343° |
| 2026-04-26 17:00 | 63.23564 | 37.33860 | 35551 ft | 446 kts | 342° |
| 2026-04-26 17:01 | 63.29504 | 37.29776 | 35551 ft | 446 kts | 341° |
| 2026-04-26 17:01 | 63.35379 | 37.25551 | 35567 ft | 446 kts | 341° |
| 2026-04-26 17:02 | 63.41238 | 37.21308 | 35584 ft | 446 kts | 341° |
| 2026-04-26 17:02 | 63.47077 | 37.16828 | 35586 ft | 445 kts | 339° |
| 2026-04-26 17:03 | 63.52910 | 37.12189 | 35597 ft | 444 kts | 339° |
| 2026-04-26 17:03 | 63.58722 | 37.07562 | 35598 ft | 445 kts | 339° |
| 2026-04-26 17:04 | 63.64569 | 37.02903 | 35598 ft | 446 kts | 340° |
| 2026-04-26 17:04 | 63.70421 | 36.98230 | 35599 ft | 445 kts | 340° |
| 2026-04-26 17:05 | 63.76253 | 36.93555 | 35607 ft | 445 kts | 340° |
| 2026-04-26 17:05 | 63.82062 | 36.88880 | 35617 ft | 445 kts | 339° |
| 2026-04-26 17:06 | 63.87858 | 36.84197 | 35622 ft | 444 kts | 339° |
| 2026-04-26 17:06 | 63.93751 | 36.79417 | 35642 ft | 444 kts | 340° |
| 2026-04-26 17:07 | 63.99571 | 36.74683 | 35651 ft | 445 kts | 340° |
| 2026-04-26 17:07 | 64.05400 | 36.69921 | 35659 ft | 445 kts | 340° |
| 2026-04-26 17:08 | 64.11231 | 36.65136 | 35667 ft | 445 kts | 340° |
| 2026-04-26 17:08 | 64.17062 | 36.60328 | 35676 ft | 445 kts | 340° |
| 2026-04-26 17:09 | 64.20928 | 36.57129 | 35672 ft | 444 kts | 340° |
| 2026-04-26 17:09 | 64.28672 | 36.50693 | 35673 ft | 443 kts | 340° |
| 2026-04-26 17:10 | 64.34438 | 36.45875 | 35672 ft | 443 kts | 339° |
| 2026-04-26 17:10 | 64.40237 | 36.41014 | 35672 ft | 444 kts | 339° |
| 2026-04-26 17:11 | 64.45998 | 36.36169 | 35678 ft | 444 kts | 339° |
| 2026-04-26 17:11 | 64.51778 | 36.31286 | 35687 ft | 444 kts | 339° |
| 2026-04-26 17:12 | 64.60472 | 36.23898 | 35692 ft | 443 kts | 339° |
| 2026-04-26 17:13 | 64.68836 | 36.15061 | 35701 ft | 441 kts | 331° |
| 2026-04-26 17:14 | 64.76978 | 36.05134 | 35708 ft | 441 kts | 331° |
| 2026-04-26 17:14 | 64.85159 | 35.95149 | 35709 ft | 442 kts | 331° |
| 2026-04-26 17:15 | 64.93299 | 35.85111 | 35716 ft | 441 kts | 331° |
| 2026-04-26 17:16 | 64.98733 | 35.78384 | 35714 ft | 441 kts | 331° |
| 2026-04-26 17:16 | 65.04163 | 35.71563 | 35719 ft | 440 kts | 329° |
| 2026-04-26 17:17 | 65.08482 | 35.65189 | 35721 ft | 439 kts | 326° |
| 2026-04-26 17:17 | 65.12875 | 35.58342 | 35726 ft | 439 kts | 326° |
| 2026-04-26 17:18 | 65.17783 | 35.50717 | 35729 ft | 439 kts | 326° |
| 2026-04-26 17:18 | 65.22895 | 35.42809 | 35731 ft | 440 kts | 326° |
| 2026-04-26 17:19 | 65.30602 | 35.30960 | 35725 ft | 440 kts | 326° |
| 2026-04-26 17:19 | 65.35742 | 35.23053 | 35724 ft | 439 kts | 326° |
| 2026-04-26 17:20 | 65.39166 | 35.17766 | 35725 ft | 438 kts | 326° |
| 2026-04-26 17:20 | 65.45963 | 35.07217 | 35726 ft | 439 kts | 326° |
| 2026-04-26 17:21 | 65.51073 | 34.99244 | 35728 ft | 438 kts | 326° |
| 2026-04-26 17:21 | 65.56178 | 34.91242 | 35730 ft | 439 kts | 326° |
| 2026-04-26 17:22 | 65.61323 | 34.83139 | 35731 ft | 439 kts | 326° |
| 2026-04-26 17:22 | 65.66398 | 34.75108 | 35734 ft | 438 kts | 326° |
| 2026-04-26 17:23 | 65.71491 | 34.67009 | 35731 ft | 437 kts | 326° |
| 2026-04-26 17:23 | 65.76550 | 34.58926 | 35737 ft | 437 kts | 326° |
| 2026-04-26 17:24 | 65.81618 | 34.50793 | 35740 ft | 436 kts | 326° |
| 2026-04-26 17:24 | 65.86680 | 34.42628 | 35746 ft | 437 kts | 326° |
| 2026-04-26 17:25 | 65.91710 | 34.34476 | 35574 ft | 430 kts | 325° |
| 2026-04-26 17:25 | 65.94230 | 34.30377 | 35119 ft | 429 kts | 325° |
| 2026-04-26 17:25 | 65.96712 | 34.26329 | 34717 ft | 425 kts | 325° |
| 2026-04-26 17:26 | 65.99166 | 34.22320 | 34270 ft | 422 kts | 325° |
| 2026-04-26 17:26 | 66.01592 | 34.18349 | 33836 ft | 418 kts | 325° |
| 2026-04-26 17:26 | 66.03998 | 34.14386 | 33414 ft | 412 kts | 325° |
| 2026-04-26 17:26 | 66.06342 | 34.10440 | 33009 ft | 408 kts | 324° |
| 2026-04-26 17:27 | 66.08673 | 34.06462 | 32682 ft | 404 kts | 324° |
| 2026-04-26 17:27 | 66.10947 | 34.02567 | 32340 ft | 401 kts | 324° |
| 2026-04-26 17:27 | 66.13271 | 33.98582 | 31925 ft | 397 kts | 324° |
| 2026-04-26 17:27 | 66.15511 | 33.94736 | 31512 ft | 392 kts | 324° |
| 2026-04-26 17:28 | 66.17715 | 33.90946 | 31165 ft | 389 kts | 324° |
| 2026-04-26 17:28 | 66.19926 | 33.87137 | 30816 ft | 384 kts | 323° |
| 2026-04-26 17:28 | 66.22107 | 33.83373 | 30359 ft | 381 kts | 323° |
| 2026-04-26 17:28 | 66.24264 | 33.79643 | 29860 ft | 376 kts | 323° |
| 2026-04-26 17:29 | 66.26389 | 33.75964 | 29319 ft | 374 kts | 323° |
| 2026-04-26 17:29 | 66.27095 | 33.74738 | 29134 ft | 373 kts | 323° |
| 2026-04-26 17:29 | 66.30596 | 33.68653 | 28226 ft | 368 kts | 323° |
| 2026-04-26 17:29 | 66.32688 | 33.65007 | 27669 ft | 365 kts | 322° |
| 2026-04-26 17:30 | 66.34763 | 33.61560 | 27121 ft | 364 kts | 327° |
| 2026-04-26 17:30 | 66.37015 | 33.58738 | 26553 ft | 364 kts | 336° |
| 2026-04-26 17:30 | 66.39487 | 33.57106 | 25972 ft | 365 kts | 348° |
| 2026-04-26 17:30 | 66.41988 | 33.56531 | 25350 ft | 365 kts | 354° |
| 2026-04-26 17:31 | 66.44518 | 33.56307 | 24674 ft | 362 kts | 355° |
| 2026-04-26 17:31 | 66.47014 | 33.56160 | 24009 ft | 359 kts | 355° |
| 2026-04-26 17:31 | 66.49521 | 33.56013 | 23343 ft | 355 kts | 356° |
| 2026-04-26 17:31 | 66.51950 | 33.55863 | 22689 ft | 351 kts | 356° |
| 2026-04-26 17:32 | 66.54368 | 33.55709 | 22011 ft | 347 kts | 356° |
| 2026-04-26 17:32 | 66.56764 | 33.55552 | 21352 ft | 343 kts | 356° |
| 2026-04-26 17:32 | 66.59109 | 33.55397 | 20713 ft | 338 kts | 357° |
| 2026-04-26 17:32 | 66.61450 | 33.55240 | 20071 ft | 334 kts | 357° |
| 2026-04-26 17:33 | 66.63735 | 33.55086 | 19430 ft | 329 kts | 357° |
| 2026-04-26 17:33 | 66.66013 | 33.54931 | 18774 ft | 325 kts | 357° |
| 2026-04-26 17:33 | 66.68251 | 33.54778 | 18122 ft | 322 kts | 357° |
| 2026-04-26 17:34 | 66.72691 | 33.54473 | 16827 ft | 314 kts | 358° |
| 2026-04-26 17:34 | 66.74839 | 33.54325 | 16187 ft | 311 kts | 358° |
| 2026-04-26 17:34 | 66.76994 | 33.54176 | 15459 ft | 310 kts | 358° |
| 2026-04-26 17:34 | 66.79122 | 33.54030 | 15018 ft | 300 kts | 358° |
| 2026-04-26 17:35 | 66.81163 | 33.53891 | 14770 ft | 285 kts | 358° |
| 2026-04-26 17:35 | 66.83121 | 33.53756 | 14307 ft | 280 kts | 358° |
| 2026-04-26 17:35 | 66.85062 | 33.53620 | 13746 ft | 278 kts | 358° |
| 2026-04-26 17:35 | 66.86985 | 33.53485 | 13189 ft | 276 kts | 358° |
| 2026-04-26 17:36 | 66.88899 | 33.53352 | 12645 ft | 274 kts | 358° |
| 2026-04-26 17:36 | 66.90782 | 33.53227 | 12126 ft | 273 kts | 358° |
| 2026-04-26 17:36 | 66.92677 | 33.53099 | 11622 ft | 269 kts | 358° |
| 2026-04-26 17:36 | 66.94525 | 33.52966 | 11271 ft | 262 kts | 358° |
| 2026-04-26 17:37 | 66.96330 | 33.52836 | 10944 ft | 258 kts | 358° |
| 2026-04-26 17:37 | 66.98136 | 33.52707 | 10623 ft | 264 kts | 358° |
| 2026-04-26 17:37 | 67.00008 | 33.52575 | 10254 ft | 267 kts | 358° |
| 2026-04-26 17:38 | 67.03677 | 33.52315 | 9642 ft | 258 kts | 358° |
| 2026-04-26 17:38 | 67.05451 | 33.52193 | 9409 ft | 251 kts | 358° |
| 2026-04-26 17:38 | 67.07196 | 33.52070 | 9070 ft | 249 kts | 358° |
| 2026-04-26 17:38 | 67.08891 | 33.51950 | 8940 ft | 243 kts | 358° |
| 2026-04-26 17:39 | 67.10606 | 33.51828 | 8968 ft | 249 kts | 358° |
| 2026-04-26 17:39 | 67.12418 | 33.51700 | 8969 ft | 253 kts | 358° |
| 2026-04-26 17:39 | 67.14167 | 33.52036 | 8966 ft | 253 kts | 13° |
| 2026-04-26 17:39 | 67.15753 | 33.54089 | 8892 ft | 254 kts | 38° |
| 2026-04-26 17:40 | 67.16974 | 33.57324 | 8496 ft | 256 kts | 45° |
| 2026-04-26 17:40 | 67.17382 | 33.58485 | 8349 ft | 256 kts | 45° |
| 2026-04-26 17:40 | 67.19373 | 33.64060 | 7761 ft | 254 kts | 44° |
| 2026-04-26 17:40 | 67.20582 | 33.67421 | 7403 ft | 252 kts | 44° |
| 2026-04-26 17:41 | 67.21762 | 33.70701 | 7055 ft | 251 kts | 44° |
| 2026-04-26 17:41 | 67.22945 | 33.73996 | 6850 ft | 243 kts | 44° |
| 2026-04-26 17:41 | 67.24063 | 33.77114 | 6699 ft | 235 kts | 44° |
| 2026-04-26 17:41 | 67.25150 | 33.80151 | 6526 ft | 228 kts | 44° |
| 2026-04-26 17:42 | 67.26222 | 33.83083 | 6315 ft | 222 kts | 41° |
| 2026-04-26 17:42 | 67.27424 | 33.85678 | 5885 ft | 226 kts | 36° |
| 2026-04-26 17:42 | 67.28680 | 33.88211 | 5354 ft | 234 kts | 36° |
| 2026-04-26 17:42 | 67.29974 | 33.90855 | 4803 ft | 239 kts | 36° |
| 2026-04-26 17:43 | 67.31283 | 33.93501 | 4245 ft | 241 kts | 33° |
| 2026-04-26 17:43 | 67.32771 | 33.95398 | 3690 ft | 240 kts | 11° |
| 2026-04-26 17:43 | 67.34405 | 33.95081 | 3194 ft | 237 kts | 338° |
| 2026-04-26 17:43 | 67.35749 | 33.92854 | 2962 ft | 227 kts | 319° |
| 2026-04-26 17:44 | 67.36773 | 33.89826 | 2793 ft | 219 kts | 309° |
| 2026-04-26 17:44 | 67.37694 | 33.86758 | 2619 ft | 211 kts | 310° |
| 2026-04-26 17:44 | 67.38597 | 33.83793 | 2412 ft | 205 kts | 310° |
| 2026-04-26 17:44 | 67.39462 | 33.80964 | 2228 ft | 195 kts | 310° |
| 2026-04-26 17:45 | 67.40284 | 33.78272 | 2054 ft | 183 kts | 310° |
| 2026-04-26 17:45 | 67.41042 | 33.75785 | 1969 ft | 168 kts | 310° |
| 2026-04-26 17:45 | 67.41735 | 33.73509 | 1994 ft | 151 kts | 310° |
| 2026-04-26 17:45 | 67.42365 | 33.71441 | 1884 ft | 143 kts | 311° |
| 2026-04-26 17:46 | 67.42985 | 33.69418 | 1520 ft | 141 kts | 311° |
| 2026-04-26 17:46 | 67.43572 | 33.67505 | 1314 ft | 129 kts | 310° |
| 2026-04-26 17:46 | 67.44141 | 33.65611 | 1082 ft | 134 kts | 310° |
| 2026-04-26 17:46 | 67.44727 | 33.63657 | 862 ft | 137 kts | 310° |
| 2026-04-26 17:47 | 67.45301 | 33.61759 | 654 ft | 131 kts | 310° |
| 2026-04-26 17:47 | 67.45495 | 33.61121 | 589 ft | 132 kts | 310° |
| 2026-04-26 17:47 | 67.46245 | 33.58665 | 522 ft | 57 kts | 309° |
| 2026-04-26 17:47 | 67.46416 | 33.58110 | 522 ft | 21 kts | 309° |
| 2026-04-26 17:48 | 67.46509 | 33.57803 | 522 ft | 20 kts | 307° |
| 2026-04-26 17:48 | 67.46595 | 33.57508 | 522 ft | 20 kts | 310° |
| 2026-04-26 17:48 | 67.46683 | 33.57227 | 522 ft | 19 kts | 310° |
| 2026-04-26 17:48 | 67.46765 | 33.56948 | 521 ft | 19 kts | 309° |
| 2026-04-26 17:49 | 67.46847 | 33.56683 | 521 ft | 18 kts | 308° |
| 2026-04-26 17:49 | 67.46935 | 33.56440 | 521 ft | 17 kts | 312° |
| 2026-04-26 17:49 | 67.46918 | 33.56347 | 521 ft | 7 kts | 133° |
| 2026-04-26 17:49 | 67.46901 | 33.56493 | 521 ft | 12 kts | 122° |
| 2026-04-26 17:50 | 67.46845 | 33.56685 | 521 ft | 13 kts | 128° |
| 2026-04-26 17:50 | 67.46785 | 33.56884 | 521 ft | 14 kts | 128° |
| 2026-04-26 17:50 | 67.46713 | 33.57116 | 522 ft | 18 kts | 128° |
| 2026-04-26 17:50 | 67.46625 | 33.57412 | 522 ft | 23 kts | 128° |
| 2026-04-26 17:51 | 67.46517 | 33.57766 | 522 ft | 27 kts | 128° |
| 2026-04-26 17:51 | 67.46392 | 33.58182 | 522 ft | 29 kts | 128° |
| 2026-04-26 17:51 | 67.46282 | 33.58541 | 522 ft | 14 kts | 129° |
| 2026-04-26 17:51 | 67.46203 | 33.58615 | 522 ft | 13 kts | 211° |
| 2026-04-26 17:52 | 67.46130 | 33.58471 | 522 ft | 9 kts | 218° |
| 2026-04-26 17:52 | 67.46121 | 33.58451 | 522 ft | 0 kts | 218° |
| 2026-04-26 17:52 | 67.46120 | 33.58449 | 522 ft | 1 kts | 218° |
| 2026-04-26 17:53 | 67.46092 | 33.58392 | 522 ft | 8 kts | 219° |
| 2026-04-26 17:53 | 67.46046 | 33.58265 | 522 ft | 7 kts | 259° |
| 2026-04-26 17:53 | 67.46056 | 33.58184 | 522 ft | 4 kts | 304° |
| 2026-04-26 17:54 | 67.46064 | 33.58156 | 522 ft | 0 kts | 308° |